sensor_id;sensor_type;location;lat;lon;timestamp;temperature;humidity
19538;DHT22;9914;51.008;4.300;2023-04-06T00:01:36;10.50;99.90
19538;DHT22;9914;51.008;4.300;2023-04-06T00:04:01;10.70;99.90
19538;DHT22;9914;51.008;4.300;2023-04-06T00:06:27;10.70;99.90
19538;DHT22;9914;51.008;4.300;2023-04-06T00:08:54;10.80;99.90
19538;DHT22;9914;51.008;4.300;2023-04-06T00:11:19;10.90;99.90
19538;DHT22;9914;51.008;4.300;2023-04-06T00:13:45;10.90;99.90
19538;DHT22;9914;51.008;4.300;2023-04-06T00:16:11;10.70;99.90
19538;DHT22;9914;51.008;4.300;2023-04-06T00:18:36;10.60;99.90
19538;DHT22;9914;51.008;4.300;2023-04-06T00:21:03;10.50;99.90
19538;DHT22;9914;51.008;4.300;2023-04-06T00:23:28;10.50;99.90
19538;DHT22;9914;51.008;4.300;2023-04-06T00:25:54;10.40;99.90
19538;DHT22;9914;51.008;4.300;2023-04-06T00:28:20;10.40;99.90
19538;DHT22;9914;51.008;4.300;2023-04-06T00:30:51;10.30;99.90
19538;DHT22;9914;51.008;4.300;2023-04-06T00:33:18;10.30;99.90
19538;DHT22;9914;51.008;4.300;2023-04-06T00:35:44;10.30;99.90
19538;DHT22;9914;51.008;4.300;2023-04-06T00:38:10;10.30;99.90
19538;DHT22;9914;51.008;4.300;2023-04-06T00:40:36;10.30;99.90
19538;DHT22;9914;51.008;4.300;2023-04-06T00:43:01;10.30;99.90
19538;DHT22;9914;51.008;4.300;2023-04-06T00:45:28;10.20;99.90
19538;DHT22;9914;51.008;4.300;2023-04-06T00:47:53;10.20;99.90
19538;DHT22;9914;51.008;4.300;2023-04-06T00:50:19;10.20;99.90
19538;DHT22;9914;51.008;4.300;2023-04-06T00:52:45;10.30;99.90
19538;DHT22;9914;51.008;4.300;2023-04-06T00:55:11;10.30;99.90
19538;DHT22;9914;51.008;4.300;2023-04-06T00:57:36;10.20;99.90
19538;DHT22;9914;51.008;4.300;2023-04-06T01:00:03;10.20;99.90
19538;DHT22;9914;51.008;4.300;2023-04-06T01:02:29;10.20;99.90
19538;DHT22;9914;51.008;4.300;2023-04-06T01:04:55;10.20;99.90
19538;DHT22;9914;51.008;4.300;2023-04-06T01:07:21;10.20;99.90
19538;DHT22;9914;51.008;4.300;2023-04-06T01:09:46;10.30;99.90
19538;DHT22;9914;51.008;4.300;2023-04-06T01:12:12;10.40;99.90
19538;DHT22;9914;51.008;4.300;2023-04-06T01:14:37;10.30;99.90
19538;DHT22;9914;51.008;4.300;2023-04-06T01:17:03;10.40;99.90
19538;DHT22;9914;51.008;4.300;2023-04-06T01:19:29;10.40;99.90
19538;DHT22;9914;51.008;4.300;2023-04-06T01:21:55;10.30;99.90
19538;DHT22;9914;51.008;4.300;2023-04-06T01:24:21;10.30;99.90
19538;DHT22;9914;51.008;4.300;2023-04-06T01:26:47;10.20;99.90
19538;DHT22;9914;51.008;4.300;2023-04-06T01:29:12;10.10;99.90
19538;DHT22;9914;51.008;4.300;2023-04-06T01:31:39;9.90;99.90
19538;DHT22;9914;51.008;4.300;2023-04-06T01:34:05;9.80;99.90
19538;DHT22;9914;51.008;4.300;2023-04-06T01:36:31;9.90;99.90
19538;DHT22;9914;51.008;4.300;2023-04-06T01:38:57;10.00;99.90
19538;DHT22;9914;51.008;4.300;2023-04-06T01:41:23;9.90;99.90
19538;DHT22;9914;51.008;4.300;2023-04-06T01:43:48;10.00;99.90
19538;DHT22;9914;51.008;4.300;2023-04-06T01:46:15;10.00;99.90
19538;DHT22;9914;51.008;4.300;2023-04-06T01:48:41;9.80;99.90
19538;DHT22;9914;51.008;4.300;2023-04-06T01:51:07;9.90;99.90
19538;DHT22;9914;51.008;4.300;2023-04-06T01:53:32;9.80;99.90
19538;DHT22;9914;51.008;4.300;2023-04-06T01:55:58;9.80;99.90
19538;DHT22;9914;51.008;4.300;2023-04-06T01:58:24;9.70;99.90
19538;DHT22;9914;51.008;4.300;2023-04-06T02:00:50;9.70;99.90
19538;DHT22;9914;51.008;4.300;2023-04-06T02:03:16;9.60;99.90
19538;DHT22;9914;51.008;4.300;2023-04-06T02:05:42;9.60;99.90
19538;DHT22;9914;51.008;4.300;2023-04-06T02:08:08;9.60;99.90
19538;DHT22;9914;51.008;4.300;2023-04-06T02:10:34;9.60;99.90
19538;DHT22;9914;51.008;4.300;2023-04-06T02:13:00;9.60;99.90
19538;DHT22;9914;51.008;4.300;2023-04-06T02:15:26;9.60;99.90
19538;DHT22;9914;51.008;4.300;2023-04-06T02:17:52;9.50;99.90
19538;DHT22;9914;51.008;4.300;2023-04-06T02:20:18;9.50;99.90
19538;DHT22;9914;51.008;4.300;2023-04-06T02:22:44;9.30;99.90
19538;DHT22;9914;51.008;4.300;2023-04-06T02:25:10;9.20;99.90
19538;DHT22;9914;51.008;4.300;2023-04-06T02:27:35;9.20;99.90
19538;DHT22;9914;51.008;4.300;2023-04-06T02:30:02;9.30;99.90
19538;DHT22;9914;51.008;4.300;2023-04-06T02:32:28;9.20;99.90
19538;DHT22;9914;51.008;4.300;2023-04-06T02:34:53;9.30;99.90
19538;DHT22;9914;51.008;4.300;2023-04-06T02:37:19;9.30;99.90
19538;DHT22;9914;51.008;4.300;2023-04-06T02:39:45;9.40;99.90
19538;DHT22;9914;51.008;4.300;2023-04-06T02:42:11;9.30;99.90
19538;DHT22;9914;51.008;4.300;2023-04-06T02:44:36;9.20;99.90
19538;DHT22;9914;51.008;4.300;2023-04-06T02:47:02;9.20;99.90
19538;DHT22;9914;51.008;4.300;2023-04-06T02:49:27;9.20;99.90
19538;DHT22;9914;51.008;4.300;2023-04-06T02:51:53;9.30;99.90
19538;DHT22;9914;51.008;4.300;2023-04-06T02:54:19;9.30;99.90
19538;DHT22;9914;51.008;4.300;2023-04-06T02:56:44;9.40;99.90
19538;DHT22;9914;51.008;4.300;2023-04-06T02:59:10;9.30;99.90
19538;DHT22;9914;51.008;4.300;2023-04-06T03:01:36;9.20;99.90
19538;DHT22;9914;51.008;4.300;2023-04-06T03:04:02;9.20;99.90
19538;DHT22;9914;51.008;4.300;2023-04-06T03:06:28;9.20;99.90
19538;DHT22;9914;51.008;4.300;2023-04-06T03:08:53;9.10;99.90
19538;DHT22;9914;51.008;4.300;2023-04-06T03:11:19;9.00;99.90
19538;DHT22;9914;51.008;4.300;2023-04-06T03:13:45;8.90;99.90
19538;DHT22;9914;51.008;4.300;2023-04-06T03:16:11;8.80;99.90
19538;DHT22;9914;51.008;4.300;2023-04-06T03:18:37;8.70;99.90
19538;DHT22;9914;51.008;4.300;2023-04-06T03:21:03;8.70;99.90
19538;DHT22;9914;51.008;4.300;2023-04-06T03:23:29;8.90;99.90
19538;DHT22;9914;51.008;4.300;2023-04-06T03:25:54;8.90;99.90
19538;DHT22;9914;51.008;4.300;2023-04-06T03:28:20;9.00;99.90
19538;DHT22;9914;51.008;4.300;2023-04-06T03:30:46;9.00;99.90
19538;DHT22;9914;51.008;4.300;2023-04-06T03:33:12;9.00;99.90
19538;DHT22;9914;51.008;4.300;2023-04-06T03:35:37;9.00;99.90
19538;DHT22;9914;51.008;4.300;2023-04-06T03:38:04;9.10;99.90
19538;DHT22;9914;51.008;4.300;2023-04-06T03:40:30;9.10;99.90
19538;DHT22;9914;51.008;4.300;2023-04-06T03:42:56;9.20;99.90
19538;DHT22;9914;51.008;4.300;2023-04-06T03:45:22;9.20;99.90
19538;DHT22;9914;51.008;4.300;2023-04-06T03:47:47;9.10;99.90
19538;DHT22;9914;51.008;4.300;2023-04-06T03:50:13;9.20;99.90
19538;DHT22;9914;51.008;4.300;2023-04-06T03:52:39;9.20;99.90
19538;DHT22;9914;51.008;4.300;2023-04-06T03:55:05;9.20;99.90
19538;DHT22;9914;51.008;4.300;2023-04-06T03:57:31;9.20;99.90
19538;DHT22;9914;51.008;4.300;2023-04-06T03:59:57;9.10;99.90
19538;DHT22;9914;51.008;4.300;2023-04-06T04:02:22;9.00;99.90
19538;DHT22;9914;51.008;4.300;2023-04-06T04:04:48;9.10;99.90
19538;DHT22;9914;51.008;4.300;2023-04-06T04:07:13;9.10;99.90
19538;DHT22;9914;51.008;4.300;2023-04-06T04:09:39;9.00;99.90
19538;DHT22;9914;51.008;4.300;2023-04-06T04:12:05;8.90;99.90
19538;DHT22;9914;51.008;4.300;2023-04-06T04:14:31;8.90;99.90
19538;DHT22;9914;51.008;4.300;2023-04-06T04:16:57;9.10;99.90
19538;DHT22;9914;51.008;4.300;2023-04-06T04:19:22;9.30;99.90
19538;DHT22;9914;51.008;4.300;2023-04-06T04:21:48;9.30;99.90
19538;DHT22;9914;51.008;4.300;2023-04-06T04:24:14;9.20;99.90
19538;DHT22;9914;51.008;4.300;2023-04-06T04:26:40;9.30;99.90
19538;DHT22;9914;51.008;4.300;2023-04-06T04:29:06;9.40;99.90
19538;DHT22;9914;51.008;4.300;2023-04-06T04:31:31;9.30;99.90
19538;DHT22;9914;51.008;4.300;2023-04-06T04:33:59;9.20;99.90
19538;DHT22;9914;51.008;4.300;2023-04-06T04:36:24;9.10;99.90
19538;DHT22;9914;51.008;4.300;2023-04-06T04:38:51;9.10;99.90
19538;DHT22;9914;51.008;4.300;2023-04-06T04:41:17;9.10;99.90
19538;DHT22;9914;51.008;4.300;2023-04-06T04:43:43;9.10;99.90
19538;DHT22;9914;51.008;4.300;2023-04-06T04:46:08;9.20;99.90
19538;DHT22;9914;51.008;4.300;2023-04-06T04:48:34;9.30;99.90
19538;DHT22;9914;51.008;4.300;2023-04-06T04:51:00;9.30;99.90
19538;DHT22;9914;51.008;4.300;2023-04-06T04:53:26;9.40;99.90
19538;DHT22;9914;51.008;4.300;2023-04-06T04:55:51;9.30;99.90
19538;DHT22;9914;51.008;4.300;2023-04-06T04:58:17;9.30;99.90
19538;DHT22;9914;51.008;4.300;2023-04-06T05:00:45;9.40;99.90
19538;DHT22;9914;51.008;4.300;2023-04-06T05:03:22;9.40;99.90
19538;DHT22;9914;51.008;4.300;2023-04-06T05:05:48;9.30;99.90
19538;DHT22;9914;51.008;4.300;2023-04-06T05:08:14;9.30;99.90
19538;DHT22;9914;51.008;4.300;2023-04-06T05:10:39;9.40;99.90
19538;DHT22;9914;51.008;4.300;2023-04-06T05:13:05;9.50;99.90
19538;DHT22;9914;51.008;4.300;2023-04-06T05:15:31;9.50;99.90
19538;DHT22;9914;51.008;4.300;2023-04-06T05:18:00;9.70;99.90
19538;DHT22;9914;51.008;4.300;2023-04-06T05:20:26;9.60;99.90
19538;DHT22;9914;51.008;4.300;2023-04-06T05:22:51;9.60;99.90
19538;DHT22;9914;51.008;4.300;2023-04-06T05:25:17;9.60;99.90
19538;DHT22;9914;51.008;4.300;2023-04-06T05:27:43;9.60;99.90
19538;DHT22;9914;51.008;4.300;2023-04-06T05:30:09;9.60;99.90
19538;DHT22;9914;51.008;4.300;2023-04-06T05:32:34;9.50;99.90
19538;DHT22;9914;51.008;4.300;2023-04-06T05:35:00;9.70;99.90
19538;DHT22;9914;51.008;4.300;2023-04-06T05:37:26;9.90;99.90
19538;DHT22;9914;51.008;4.300;2023-04-06T05:39:51;9.90;99.90
19538;DHT22;9914;51.008;4.300;2023-04-06T05:42:17;9.90;99.90
19538;DHT22;9914;51.008;4.300;2023-04-06T05:44:43;9.80;99.90
19538;DHT22;9914;51.008;4.300;2023-04-06T05:47:08;9.80;99.90
19538;DHT22;9914;51.008;4.300;2023-04-06T05:49:34;9.90;99.90
19538;DHT22;9914;51.008;4.300;2023-04-06T05:52:00;9.90;99.90
19538;DHT22;9914;51.008;4.300;2023-04-06T05:54:26;10.00;99.90
19538;DHT22;9914;51.008;4.300;2023-04-06T05:56:52;10.10;99.90
19538;DHT22;9914;51.008;4.300;2023-04-06T05:59:18;10.20;99.90
19538;DHT22;9914;51.008;4.300;2023-04-06T06:01:43;10.20;99.90
19538;DHT22;9914;51.008;4.300;2023-04-06T06:04:09;10.20;99.90
19538;DHT22;9914;51.008;4.300;2023-04-06T06:06:35;10.20;99.90
19538;DHT22;9914;51.008;4.300;2023-04-06T06:09:02;10.10;99.90
19538;DHT22;9914;51.008;4.300;2023-04-06T06:11:29;10.20;99.90
19538;DHT22;9914;51.008;4.300;2023-04-06T06:13:55;10.30;99.90
19538;DHT22;9914;51.008;4.300;2023-04-06T06:16:21;10.30;99.90
19538;DHT22;9914;51.008;4.300;2023-04-06T06:18:47;10.30;99.90
19538;DHT22;9914;51.008;4.300;2023-04-06T06:21:13;10.30;99.90
19538;DHT22;9914;51.008;4.300;2023-04-06T06:23:39;10.30;99.90
19538;DHT22;9914;51.008;4.300;2023-04-06T06:26:04;10.30;99.90
19538;DHT22;9914;51.008;4.300;2023-04-06T06:28:30;10.30;99.90
19538;DHT22;9914;51.008;4.300;2023-04-06T06:30:56;10.30;99.90
19538;DHT22;9914;51.008;4.300;2023-04-06T06:33:22;10.30;99.90
19538;DHT22;9914;51.008;4.300;2023-04-06T06:35:48;10.30;99.90
19538;DHT22;9914;51.008;4.300;2023-04-06T06:38:14;10.30;99.90
19538;DHT22;9914;51.008;4.300;2023-04-06T06:40:40;10.30;99.90
19538;DHT22;9914;51.008;4.300;2023-04-06T06:43:06;10.30;99.90
19538;DHT22;9914;51.008;4.300;2023-04-06T06:45:32;10.20;99.90
19538;DHT22;9914;51.008;4.300;2023-04-06T06:47:58;10.20;99.90
19538;DHT22;9914;51.008;4.300;2023-04-06T06:50:24;10.20;99.90
19538;DHT22;9914;51.008;4.300;2023-04-06T06:52:50;10.20;99.90
19538;DHT22;9914;51.008;4.300;2023-04-06T06:55:15;10.20;99.90
19538;DHT22;9914;51.008;4.300;2023-04-06T06:57:41;10.20;99.90
19538;DHT22;9914;51.008;4.300;2023-04-06T07:00:08;10.10;99.90
19538;DHT22;9914;51.008;4.300;2023-04-06T07:02:35;10.10;99.90
19538;DHT22;9914;51.008;4.300;2023-04-06T07:05:01;10.10;99.90
19538;DHT22;9914;51.008;4.300;2023-04-06T07:07:27;10.10;99.90
19538;DHT22;9914;51.008;4.300;2023-04-06T07:09:53;10.20;99.90
19538;DHT22;9914;51.008;4.300;2023-04-06T07:12:18;10.20;99.90
19538;DHT22;9914;51.008;4.300;2023-04-06T07:14:44;10.30;99.90
19538;DHT22;9914;51.008;4.300;2023-04-06T07:17:10;10.40;99.90
19538;DHT22;9914;51.008;4.300;2023-04-06T07:19:36;10.40;99.90
19538;DHT22;9914;51.008;4.300;2023-04-06T07:22:02;10.60;99.90
19538;DHT22;9914;51.008;4.300;2023-04-06T07:24:28;10.70;99.90
19538;DHT22;9914;51.008;4.300;2023-04-06T07:26:55;10.80;99.90
19538;DHT22;9914;51.008;4.300;2023-04-06T07:29:21;10.80;99.90
19538;DHT22;9914;51.008;4.300;2023-04-06T07:31:48;10.90;99.90
19538;DHT22;9914;51.008;4.300;2023-04-06T07:34:15;11.00;99.90
19538;DHT22;9914;51.008;4.300;2023-04-06T07:36:40;11.00;99.90
19538;DHT22;9914;51.008;4.300;2023-04-06T07:39:06;11.00;99.90
19538;DHT22;9914;51.008;4.300;2023-04-06T07:41:32;11.00;99.90
19538;DHT22;9914;51.008;4.300;2023-04-06T07:43:58;11.10;99.90
19538;DHT22;9914;51.008;4.300;2023-04-06T07:46:24;11.20;99.90
19538;DHT22;9914;51.008;4.300;2023-04-06T07:48:50;11.00;99.90
19538;DHT22;9914;51.008;4.300;2023-04-06T07:51:16;10.90;99.90
19538;DHT22;9914;51.008;4.300;2023-04-06T07:53:44;10.90;99.90
19538;DHT22;9914;51.008;4.300;2023-04-06T07:56:10;10.90;99.90
19538;DHT22;9914;51.008;4.300;2023-04-06T07:58:35;10.80;99.90
19538;DHT22;9914;51.008;4.300;2023-04-06T08:01:01;10.80;99.90
19538;DHT22;9914;51.008;4.300;2023-04-06T08:03:27;10.70;99.90
19538;DHT22;9914;51.008;4.300;2023-04-06T08:05:53;10.80;99.90
19538;DHT22;9914;51.008;4.300;2023-04-06T08:08:19;10.80;99.90
19538;DHT22;9914;51.008;4.300;2023-04-06T08:10:47;10.90;99.90
19538;DHT22;9914;51.008;4.300;2023-04-06T08:13:12;10.80;99.90
19538;DHT22;9914;51.008;4.300;2023-04-06T08:15:38;10.80;99.90
19538;DHT22;9914;51.008;4.300;2023-04-06T08:18:04;10.70;99.90
19538;DHT22;9914;51.008;4.300;2023-04-06T08:20:30;10.60;99.90
19538;DHT22;9914;51.008;4.300;2023-04-06T08:22:56;10.40;99.90
19538;DHT22;9914;51.008;4.300;2023-04-06T08:25:22;10.30;99.90
19538;DHT22;9914;51.008;4.300;2023-04-06T08:27:47;10.40;99.90
19538;DHT22;9914;51.008;4.300;2023-04-06T08:30:13;10.50;99.90
19538;DHT22;9914;51.008;4.300;2023-04-06T08:32:41;10.50;99.90
19538;DHT22;9914;51.008;4.300;2023-04-06T08:35:07;10.50;99.90
19538;DHT22;9914;51.008;4.300;2023-04-06T08:37:33;10.40;99.90
19538;DHT22;9914;51.008;4.300;2023-04-06T08:39:59;10.30;99.90
19538;DHT22;9914;51.008;4.300;2023-04-06T08:42:26;10.30;99.90
19538;DHT22;9914;51.008;4.300;2023-04-06T08:44:55;10.10;99.90
19538;DHT22;9914;51.008;4.300;2023-04-06T08:47:21;10.10;99.90
19538;DHT22;9914;51.008;4.300;2023-04-06T08:49:47;10.10;99.90
19538;DHT22;9914;51.008;4.300;2023-04-06T08:52:13;10.10;99.90
19538;DHT22;9914;51.008;4.300;2023-04-06T08:54:41;10.10;99.90
19538;DHT22;9914;51.008;4.300;2023-04-06T08:57:07;10.10;99.90
19538;DHT22;9914;51.008;4.300;2023-04-06T08:59:34;10.20;99.90
19538;DHT22;9914;51.008;4.300;2023-04-06T09:02:04;10.20;99.90
19538;DHT22;9914;51.008;4.300;2023-04-06T09:04:32;10.30;99.90
19538;DHT22;9914;51.008;4.300;2023-04-06T09:06:59;10.30;99.90
19538;DHT22;9914;51.008;4.300;2023-04-06T09:09:25;10.30;99.90
19538;DHT22;9914;51.008;4.300;2023-04-06T09:11:51;10.30;99.90
19538;DHT22;9914;51.008;4.300;2023-04-06T09:14:32;10.30;99.90
19538;DHT22;9914;51.008;4.300;2023-04-06T09:16:58;10.40;99.90
19538;DHT22;9914;51.008;4.300;2023-04-06T09:19:23;10.50;99.90
19538;DHT22;9914;51.008;4.300;2023-04-06T09:21:49;10.40;99.90
19538;DHT22;9914;51.008;4.300;2023-04-06T09:24:15;10.50;99.90
19538;DHT22;9914;51.008;4.300;2023-04-06T09:26:47;10.50;99.90
19538;DHT22;9914;51.008;4.300;2023-04-06T09:29:33;10.40;99.90
19538;DHT22;9914;51.008;4.300;2023-04-06T09:32:04;10.40;99.90
19538;DHT22;9914;51.008;4.300;2023-04-06T09:34:30;10.50;99.90
19538;DHT22;9914;51.008;4.300;2023-04-06T09:36:56;10.30;99.90
19538;DHT22;9914;51.008;4.300;2023-04-06T09:39:22;10.50;99.90
19538;DHT22;9914;51.008;4.300;2023-04-06T09:41:52;10.50;99.90
19538;DHT22;9914;51.008;4.300;2023-04-06T09:44:18;10.70;99.90
19538;DHT22;9914;51.008;4.300;2023-04-06T09:46:46;10.70;99.90
19538;DHT22;9914;51.008;4.300;2023-04-06T09:49:12;10.80;99.90
19538;DHT22;9914;51.008;4.300;2023-04-06T09:54:04;11.00;99.90
19538;DHT22;9914;51.008;4.300;2023-04-06T09:56:37;11.00;99.90
19538;DHT22;9914;51.008;4.300;2023-04-06T09:59:12;11.00;99.90
19538;DHT22;9914;51.008;4.300;2023-04-06T10:01:39;11.10;99.90
19538;DHT22;9914;51.008;4.300;2023-04-06T10:06:49;10.70;99.90
19538;DHT22;9914;51.008;4.300;2023-04-06T10:09:18;10.60;99.90
19538;DHT22;9914;51.008;4.300;2023-04-06T10:11:48;10.50;99.90
19538;DHT22;9914;51.008;4.300;2023-04-06T10:14:15;10.50;99.90
19538;DHT22;9914;51.008;4.300;2023-04-06T10:16:42;10.50;99.90
19538;DHT22;9914;51.008;4.300;2023-04-06T10:19:18;10.50;99.90
19538;DHT22;9914;51.008;4.300;2023-04-06T10:21:47;10.50;99.90
19538;DHT22;9914;51.008;4.300;2023-04-06T10:24:15;10.60;99.90
19538;DHT22;9914;51.008;4.300;2023-04-06T10:26:42;10.80;99.90
19538;DHT22;9914;51.008;4.300;2023-04-06T10:29:08;10.80;99.90
19538;DHT22;9914;51.008;4.300;2023-04-06T10:31:41;11.00;99.90
19538;DHT22;9914;51.008;4.300;2023-04-06T10:34:07;10.90;99.90
19538;DHT22;9914;51.008;4.300;2023-04-06T10:36:34;11.00;99.90
19538;DHT22;9914;51.008;4.300;2023-04-06T10:39:04;11.10;99.90
19538;DHT22;9914;51.008;4.300;2023-04-06T10:41:44;11.20;99.90
19538;DHT22;9914;51.008;4.300;2023-04-06T10:44:21;11.40;99.90
19538;DHT22;9914;51.008;4.300;2023-04-06T10:46:56;11.50;99.90
19538;DHT22;9914;51.008;4.300;2023-04-06T10:49:22;11.60;99.90
19538;DHT22;9914;51.008;4.300;2023-04-06T10:51:53;11.70;99.90
19538;DHT22;9914;51.008;4.300;2023-04-06T10:54:21;11.80;99.90
19538;DHT22;9914;51.008;4.300;2023-04-06T10:56:48;11.60;99.90
19538;DHT22;9914;51.008;4.300;2023-04-06T10:59:14;11.50;99.90
19538;DHT22;9914;51.008;4.300;2023-04-06T11:01:44;11.30;99.90
19538;DHT22;9914;51.008;4.300;2023-04-06T11:04:16;11.20;99.90
19538;DHT22;9914;51.008;4.300;2023-04-06T11:06:46;11.20;99.90
19538;DHT22;9914;51.008;4.300;2023-04-06T11:09:23;11.20;99.90
19538;DHT22;9914;51.008;4.300;2023-04-06T11:11:50;11.30;99.90
19538;DHT22;9914;51.008;4.300;2023-04-06T11:14:16;11.40;99.90
19538;DHT22;9914;51.008;4.300;2023-04-06T11:16:41;11.40;99.90
19538;DHT22;9914;51.008;4.300;2023-04-06T11:19:07;11.30;99.90
19538;DHT22;9914;51.008;4.300;2023-04-06T11:21:37;11.20;99.90
19538;DHT22;9914;51.008;4.300;2023-04-06T11:24:10;11.10;99.90
19538;DHT22;9914;51.008;4.300;2023-04-06T11:29:12;10.90;99.90
19538;DHT22;9914;51.008;4.300;2023-04-06T11:31:42;10.80;99.90
19538;DHT22;9914;51.008;4.300;2023-04-06T11:34:28;10.70;99.90
19538;DHT22;9914;51.008;4.300;2023-04-06T11:37:03;10.90;99.90
19538;DHT22;9914;51.008;4.300;2023-04-06T11:39:31;11.00;99.90
19538;DHT22;9914;51.008;4.300;2023-04-06T11:42:01;11.00;99.90
19538;DHT22;9914;51.008;4.300;2023-04-06T11:44:35;10.80;99.90
19538;DHT22;9914;51.008;4.300;2023-04-06T11:47:03;10.80;99.90
19538;DHT22;9914;51.008;4.300;2023-04-06T11:49:33;10.80;99.90
19538;DHT22;9914;51.008;4.300;2023-04-06T11:51:59;10.80;99.90
19538;DHT22;9914;51.008;4.300;2023-04-06T11:54:36;10.90;99.90
19538;DHT22;9914;51.008;4.300;2023-04-06T11:57:04;10.90;99.90
19538;DHT22;9914;51.008;4.300;2023-04-06T11:59:31;11.10;99.90
19538;DHT22;9914;51.008;4.300;2023-04-06T12:02:01;11.20;99.90
19538;DHT22;9914;51.008;4.300;2023-04-06T12:04:27;11.10;99.90
19538;DHT22;9914;51.008;4.300;2023-04-06T12:06:53;11.00;99.90
19538;DHT22;9914;51.008;4.300;2023-04-06T12:09:18;10.80;99.90
19538;DHT22;9914;51.008;4.300;2023-04-06T12:11:45;10.70;99.90
19538;DHT22;9914;51.008;4.300;2023-04-06T12:14:11;10.90;99.90
19538;DHT22;9914;51.008;4.300;2023-04-06T12:16:37;11.00;99.90
19538;DHT22;9914;51.008;4.300;2023-04-06T12:19:03;11.00;99.90
19538;DHT22;9914;51.008;4.300;2023-04-06T12:21:29;11.00;99.90
19538;DHT22;9914;51.008;4.300;2023-04-06T12:23:56;11.10;99.90
19538;DHT22;9914;51.008;4.300;2023-04-06T12:26:22;11.30;99.90
19538;DHT22;9914;51.008;4.300;2023-04-06T12:28:48;11.50;99.90
19538;DHT22;9914;51.008;4.300;2023-04-06T12:31:15;11.30;99.90
19538;DHT22;9914;51.008;4.300;2023-04-06T12:33:42;11.30;99.90
19538;DHT22;9914;51.008;4.300;2023-04-06T12:36:18;11.20;99.90
19538;DHT22;9914;51.008;4.300;2023-04-06T12:38:48;11.10;99.90
19538;DHT22;9914;51.008;4.300;2023-04-06T12:41:14;11.00;99.90
19538;DHT22;9914;51.008;4.300;2023-04-06T12:43:41;11.00;99.90
19538;DHT22;9914;51.008;4.300;2023-04-06T12:46:07;10.80;99.90
19538;DHT22;9914;51.008;4.300;2023-04-06T12:48:32;10.80;99.90
19538;DHT22;9914;51.008;4.300;2023-04-06T12:51:00;10.80;99.90
19538;DHT22;9914;51.008;4.300;2023-04-06T12:53:26;10.80;99.90
19538;DHT22;9914;51.008;4.300;2023-04-06T12:55:55;10.80;99.90
19538;DHT22;9914;51.008;4.300;2023-04-06T12:58:22;10.70;99.90
19538;DHT22;9914;51.008;4.300;2023-04-06T13:00:48;10.60;99.90
19538;DHT22;9914;51.008;4.300;2023-04-06T13:03:15;10.80;99.90
19538;DHT22;9914;51.008;4.300;2023-04-06T13:05:45;10.90;99.90
19538;DHT22;9914;51.008;4.300;2023-04-06T13:08:11;10.80;99.90
19538;DHT22;9914;51.008;4.300;2023-04-06T13:10:37;11.00;99.90
19538;DHT22;9914;51.008;4.300;2023-04-06T13:13:03;11.00;99.90
19538;DHT22;9914;51.008;4.300;2023-04-06T13:15:29;10.90;99.90
19538;DHT22;9914;51.008;4.300;2023-04-06T13:17:55;10.90;99.90
19538;DHT22;9914;51.008;4.300;2023-04-06T13:20:20;10.90;99.90
19538;DHT22;9914;51.008;4.300;2023-04-06T13:22:46;11.00;99.90
19538;DHT22;9914;51.008;4.300;2023-04-06T13:25:12;10.90;99.90
19538;DHT22;9914;51.008;4.300;2023-04-06T13:27:37;10.80;99.90
19538;DHT22;9914;51.008;4.300;2023-04-06T13:30:03;10.90;99.90
19538;DHT22;9914;51.008;4.300;2023-04-06T13:32:30;10.90;99.90
19538;DHT22;9914;51.008;4.300;2023-04-06T13:34:56;11.00;99.90
19538;DHT22;9914;51.008;4.300;2023-04-06T13:37:22;11.00;99.90
19538;DHT22;9914;51.008;4.300;2023-04-06T13:39:47;10.80;99.90
19538;DHT22;9914;51.008;4.300;2023-04-06T13:42:13;10.90;99.90
19538;DHT22;9914;51.008;4.300;2023-04-06T13:44:39;10.70;99.90
19538;DHT22;9914;51.008;4.300;2023-04-06T13:47:05;10.70;99.90
19538;DHT22;9914;51.008;4.300;2023-04-06T13:49:31;10.80;99.90
19538;DHT22;9914;51.008;4.300;2023-04-06T13:51:57;10.80;99.90
19538;DHT22;9914;51.008;4.300;2023-04-06T13:54:23;10.90;99.90
19538;DHT22;9914;51.008;4.300;2023-04-06T13:56:49;10.90;99.90
19538;DHT22;9914;51.008;4.300;2023-04-06T13:59:14;10.70;99.90
19538;DHT22;9914;51.008;4.300;2023-04-06T14:01:40;10.70;99.90
19538;DHT22;9914;51.008;4.300;2023-04-06T14:04:06;10.70;99.90
19538;DHT22;9914;51.008;4.300;2023-04-06T14:06:31;10.60;99.90
19538;DHT22;9914;51.008;4.300;2023-04-06T14:08:57;10.70;99.90
19538;DHT22;9914;51.008;4.300;2023-04-06T14:11:23;10.70;99.90
19538;DHT22;9914;51.008;4.300;2023-04-06T14:13:49;10.70;99.90
19538;DHT22;9914;51.008;4.300;2023-04-06T14:16:14;10.90;99.90
19538;DHT22;9914;51.008;4.300;2023-04-06T14:18:40;10.70;99.90
19538;DHT22;9914;51.008;4.300;2023-04-06T14:21:06;10.80;99.90
19538;DHT22;9914;51.008;4.300;2023-04-06T14:23:32;10.90;99.90
19538;DHT22;9914;51.008;4.300;2023-04-06T14:26:05;10.90;99.90
19538;DHT22;9914;51.008;4.300;2023-04-06T14:28:32;10.90;99.90
19538;DHT22;9914;51.008;4.300;2023-04-06T14:30:59;10.90;99.90
19538;DHT22;9914;51.008;4.300;2023-04-06T14:33:29;10.80;99.90
19538;DHT22;9914;51.008;4.300;2023-04-06T14:35:55;10.80;99.90
19538;DHT22;9914;51.008;4.300;2023-04-06T14:38:21;10.90;99.90
19538;DHT22;9914;51.008;4.300;2023-04-06T14:40:48;10.90;99.90
19538;DHT22;9914;51.008;4.300;2023-04-06T14:43:13;11.00;99.90
19538;DHT22;9914;51.008;4.300;2023-04-06T14:45:40;11.20;99.90
19538;DHT22;9914;51.008;4.300;2023-04-06T14:48:06;11.30;99.90
19538;DHT22;9914;51.008;4.300;2023-04-06T14:50:32;11.30;99.90
19538;DHT22;9914;51.008;4.300;2023-04-06T14:52:58;11.30;99.90
19538;DHT22;9914;51.008;4.300;2023-04-06T14:55:25;11.30;99.90
19538;DHT22;9914;51.008;4.300;2023-04-06T14:57:50;11.10;99.90
19538;DHT22;9914;51.008;4.300;2023-04-06T15:00:16;11.10;99.90
19538;DHT22;9914;51.008;4.300;2023-04-06T15:02:42;11.20;99.90
19538;DHT22;9914;51.008;4.300;2023-04-06T15:05:08;11.40;99.90
19538;DHT22;9914;51.008;4.300;2023-04-06T15:07:34;11.40;99.90
19538;DHT22;9914;51.008;4.300;2023-04-06T15:10:00;11.50;99.90
19538;DHT22;9914;51.008;4.300;2023-04-06T15:12:26;11.70;99.90
19538;DHT22;9914;51.008;4.300;2023-04-06T15:14:51;11.70;99.90
19538;DHT22;9914;51.008;4.300;2023-04-06T15:17:17;11.90;99.90
19538;DHT22;9914;51.008;4.300;2023-04-06T15:19:42;11.80;99.90
19538;DHT22;9914;51.008;4.300;2023-04-06T15:22:08;11.90;99.90
19538;DHT22;9914;51.008;4.300;2023-04-06T15:24:34;11.90;99.90
19538;DHT22;9914;51.008;4.300;2023-04-06T15:26:59;11.90;99.90
19538;DHT22;9914;51.008;4.300;2023-04-06T15:29:25;12.00;99.90
19538;DHT22;9914;51.008;4.300;2023-04-06T15:31:51;12.10;99.90
19538;DHT22;9914;51.008;4.300;2023-04-06T15:34:16;12.10;99.90
19538;DHT22;9914;51.008;4.300;2023-04-06T15:36:43;12.00;99.90
19538;DHT22;9914;51.008;4.300;2023-04-06T15:39:10;12.20;99.90
19538;DHT22;9914;51.008;4.300;2023-04-06T15:41:36;12.30;99.90
19538;DHT22;9914;51.008;4.300;2023-04-06T15:44:02;12.30;99.90
19538;DHT22;9914;51.008;4.300;2023-04-06T15:46:29;12.30;99.90
19538;DHT22;9914;51.008;4.300;2023-04-06T15:48:55;12.30;99.90
19538;DHT22;9914;51.008;4.300;2023-04-06T15:51:21;12.20;99.90
19538;DHT22;9914;51.008;4.300;2023-04-06T15:53:46;12.30;99.90